Lipscomb, TX (79056)

4:06 PM CDT on July 29, 2016 (GMT -0500)
Darrouzett - South Elm St. | | Change Station

Elev 2579 ft 36.44 °N, 100.33 °W | Updated 33 seconds ago

Clear
Clear
84.7 °F
Feels Like 86 °F
N
2.7
Wind Variable Wind from NW
Gusts 4.9 mph

Today
High -- | Low -- °F
--% Chance of Precip.
Yesterday
High -- | Low -- °F
Precip. -- in
Pressure 30.03 in
Visibility 10.0 miles
Clouds Clear
Heat Index 86 °F
Dew Point 64 °F
Humidity 50%
Rainfall 0.20 in
Snow Depth Not available.
6:46 AM 8:48 PM
Waning Crescent, 19% visible
METAR KHHF 292055Z AUTO 22009KT 10SM CLR 31/19 A3003 RMK AO2 LTG DSNT N T03050187
Pressure 30.03 in
Visibility 10.0 miles
Clouds Clear
Heat Index 86 °F
Dew Point 64 °F
Humidity 50%
Rainfall 0.20 in
Snow Depth Not available.
6:46 AM 8:48 PM
Waning Crescent, 19% visible
METAR KHHF 292055Z AUTO 22009KT 10SM CLR 31/19 A3003 RMK AO2 LTG DSNT N T03050187

10-Day Weather Forecast

Almanac

Astronomy

Jul. 29, 2016 Rise Set
Actual Time
Civil Twilight
Nautical Twilight
Astronomical Twilight
Moon
Length of Visible Light
Length of Day
Tomorrow will be .
, % of the Moon is Illuminated

Today's Extremes

State Highs State Lows

Community

WunderPhotos

Upload Photos

1,928,416 photos uploaded!

WunderBlog® & News

Nearby

Air Quality

  Air Quality AQ Index Pollutant
Not available.

Snow Depth

Station Depth Elevation

Earthquake Activity

City Distance Mag. Time & Date
Minimum magnitude displayed is 2.5.

Coastal Water Temperatures

Place Temperature

Stations

Nearby Weather Stations

Station Location Temp. Windchill Dew Point Humidity Wind Precip. Elev Updated Type
                   

Watches & Warnings

There are currently no watches in effect.